Club Med II — FNIR — position and weather

sailwx.info

Track history (hours):
 
Tides and Currents Weather Stations Pressure Air Temp Water Temp Dewpoint Dewpoint Depression Visibility Wind Speed Wind Dir Waves Ship Positions

Club Med II

Operator: V.Ships Leisure S.A.M

Last reported at 2018-Apr-26 05:09 UTC. Time now 2018-Apr-26 19:11 UTC.
Position N 41°22' E 002°11'.

Length 187 m; draft 5.3 m.

Type: Ship. MMSI: 227194000.

Date/timePositionNaut miles runAvg speedWind from/ knotsBaromVisibWave heightAir tempDewpointWater temp
2018-Apr-26 05:09N 41°22' E 002°11'0 0.0
2018-Apr-26 04:49N 41°22' E 002°11'1 2.9
2018-Apr-26 04:30N 41°21' E 002°11'4 7.1
2018-Apr-26 04:00N 41°19' E 002°14'611.1
2018-Apr-26 03:30N 41°14' E 002°11'611.6
2018-Apr-26 03:00N 41°09' E 002°07'611.5
2018-Apr-26 02:27N 41°03' E 002°03'3011.4
2018-Apr-25 23:48N 40°36' E 001°45'611.4
2018-Apr-25 23:19N 40°32' E 001°41'16514.7
2018-Apr-25 12:05N 38°07' W 000°01'214.9
2018-Apr-25 11:58N 38°05' W 000°02'814.4
2018-Apr-25 11:25N 37°59' W 000°09'614.3
2018-Apr-25 11:00N 37°54' W 000°13'914.3
2018-Apr-25 10:21N 37°47' W 000°19'514.2
2018-Apr-25 10:00N 37°42' W 000°23'713.9
2018-Apr-25 09:29N 37°36' W 000°28'713.3
2018-Apr-25 08:59N 37°32' W 000°33'713.7
2018-Apr-25 08:30N 37°27' W 000°40'814.4
2018-Apr-25 07:59N 37°22' W 000°47'714.8
2018-Apr-25 07:30N 37°18' W 000°54'914.7
2018-Apr-25 06:54N 37°12' W 001°02'212 7.0
2018-Apr-24 00:32N 36°05' W 005°13'011.7
2018-Apr-24 00:30N 36°05' W 005°14'611.8
2018-Apr-24 00:00N 36°01' W 005°19'713.4
2018-Apr-23 23:30N 35°58' W 005°26'128 5.0
2018-Apr-22 22:00N 36°32' W 007°59'81 6.7
2018-Apr-22 09:52N 37°25' W 009°15'3 9.2
2018-Apr-22 09:30N 37°28' W 009°15'5 9.2
2018-Apr-22 08:58N 37°33' W 009°16'4 9.4
2018-Apr-22 08:30N 37°37' W 009°17'5 9.3
2018-Apr-22 07:58N 37°42' W 009°17'4 9.4
2018-Apr-22 07:30N 37°46' W 009°18'4 8.4
2018-Apr-22 07:00N 37°51' W 009°18'4 8.7
2018-Apr-22 06:30N 37°55' W 009°19'4 8.9
2018-Apr-22 06:00N 37°59' W 009°19'4 8.6
2018-Apr-22 05:30N 38°04' W 009°19'4 8.7
2018-Apr-22 05:00N 38°08' W 009°20'4 8.6
2018-Apr-22 04:30N 38°12' W 009°20'4 8.5
2018-Apr-22 04:00N 38°17' W 009°20'4 9.0
2018-Apr-22 03:30N 38°21' W 009°20'5 9.3
2018-Apr-22 03:00N 38°26' W 009°21'4 8.8
2018-Apr-22 02:30N 38°30' W 009°21'5 9.1
2018-Apr-22 02:00N 38°35' W 009°22'510.5
2018-Apr-22 01:30N 38°40' W 009°19'611.6
2018-Apr-22 01:01N 38°41' W 009°12'4 8.8
2018-Apr-22 00:30N 38°43' W 009°07'0 0.0
2018-Apr-22 00:00N 38°43' W 009°07'0 0.0
2018-Apr-21 23:30N 38°43' W 009°07'0 0.0
2018-Apr-21 23:00N 38°43' W 009°07'0 0.0
2018-Apr-21 22:30N 38°43' W 009°07'0 0.0
2018-Apr-21 22:00N 38°43' W 009°07'0 0.0
2018-Apr-21 21:30N 38°43' W 009°07'0 0.0
2018-Apr-21 21:00N 38°43' W 009°07'0 0.0
2018-Apr-21 20:27N 38°43' W 009°07'0 0.0
2018-Apr-21 20:00N 38°43' W 009°07'0 0.0
2018-Apr-21 19:30N 38°43' W 009°07'0 0.0
2018-Apr-21 19:00N 38°43' W 009°07'0 0.0
2018-Apr-21 18:30N 38°43' W 009°07'0 0.0
2018-Apr-21 17:57N 38°43' W 009°07'0 0.0
2018-Apr-21 17:00N 38°43' W 009°07'0 0.0
2018-Apr-21 15:33N 38°43' W 009°07'0 0.0
2018-Apr-21 15:24N 38°43' W 009°07'0 0.0
2018-Apr-21 12:00N 38°43' W 009°07'0 0.0
2018-Apr-21 11:30N 38°43' W 009°07'0 0.0
2018-Apr-21 10:45N 38°43' W 009°07'0 0.0
2018-Apr-21 10:30N 38°43' W 009°07'0 0.0
2018-Apr-21 10:00N 38°43' W 009°07'0 0.0
2018-Apr-21 09:30N 38°43' W 009°07'0 0.0
2018-Apr-21 08:57N 38°43' W 009°07'0 0.0
2018-Apr-21 08:30N 38°43' W 009°07'0 0.0
2018-Apr-21 08:00N 38°43' W 009°07'0 0.0
2018-Apr-21 07:30N 38°43' W 009°07'0 0.0
2018-Apr-21 07:00N 38°43' W 009°07'0 0.0
2018-Apr-21 06:30N 38°43' W 009°07'0 0.0
2018-Apr-21 06:00N 38°43' W 009°07'0 0.0
2018-Apr-21 05:30N 38°43' W 009°07'0 0.0
2018-Apr-21 04:54N 38°43' W 009°07'0 0.0
2018-Apr-21 04:27N 38°43' W 009°07'0 0.0
2018-Apr-21 04:00N 38°43' W 009°07'0 0.0
2018-Apr-21 03:24N 38°43' W 009°07'0 0.0
2018-Apr-21 02:09N 38°43' W 009°07'0 0.0
2018-Apr-21 01:57N 38°43' W 009°07'0 0.0
2018-Apr-21 00:57N 38°43' W 009°07'0 0.0
2018-Apr-21 00:30N 38°43' W 009°07'0 0.0
2018-Apr-21 00:00N 38°43' W 009°07'0 0.0
2018-Apr-20 23:30N 38°43' W 009°07'0 0.0
2018-Apr-20 23:00N 38°43' W 009°07'0 0.0
2018-Apr-20 21:12N 38°43' W 009°07'0 0.0
2018-Apr-20 20:57N 38°43' W 009°07'0 0.0
2018-Apr-20 20:03N 38°43' W 009°07'0 0.0
2018-Apr-20 19:57N 38°43' W 009°07'0 0.0
2018-Apr-20 19:27N 38°43' W 009°07'0 0.0
2018-Apr-20 19:00N 38°43' W 009°07'0 0.0
2018-Apr-20 18:30N 38°43' W 009°07'0 0.0
2018-Apr-20 17:57N 38°43' W 009°07'0 0.0
2018-Apr-20 17:30N 38°43' W 009°07'0 0.0
2018-Apr-20 16:54N 38°43' W 009°07'0 0.0
2018-Apr-20 11:15N 38°43' W 009°07'0 0.0
2018-Apr-20 10:57N 38°43' W 009°07'0 0.0
2018-Apr-20 10:30N 38°43' W 009°07'0 0.0
2018-Apr-20 09:57N 38°43' W 009°07'0 0.0
2018-Apr-20 08:33N 38°43' W 009°07'0 0.0
2018-Apr-20 08:24N 38°43' W 009°07'0 0.0
2018-Apr-20 07:57N 38°43' W 009°07'0 0.0
2018-Apr-20 07:24N 38°43' W 009°07'0 0.0
2018-Apr-20 07:00N 38°43' W 009°07'0 0.0
2018-Apr-20 06:24N 38°43' W 009°07'0 0.0
2018-Apr-20 05:54N 38°43' W 009°07'0 0.0
2018-Apr-20 05:30N 38°43' W 009°07'0 0.0
2018-Apr-20 05:00N 38°43' W 009°07'0 0.0
2018-Apr-20 04:30N 38°43' W 009°07'0 0.0
2018-Apr-20 03:57N 38°43' W 009°07'0 0.0
2018-Apr-20 03:30N 38°43' W 009°07'0 0.0
2018-Apr-20 02:54N 38°43' W 009°07'0 0.0
2018-Apr-20 02:27N 38°43' W 009°07'0 0.0
2018-Apr-20 01:57N 38°43' W 009°07'0 0.0
2018-Apr-20 01:30N 38°43' W 009°07'0 0.0
2018-Apr-20 01:00N 38°43' W 009°07'0 0.0
2018-Apr-20 00:27N 38°43' W 009°07'0 0.0
2018-Apr-20 00:00N 38°43' W 009°07'0 0.0
2018-Apr-19 23:24N 38°43' W 009°07'0 0.0
2018-Apr-19 23:00N 38°43' W 009°07'0 0.0
2018-Apr-19 22:27N 38°43' W 009°07'0 0.0
2018-Apr-19 21:45N 38°43' W 009°07'0 0.0
2018-Apr-19 21:27N 38°43' W 009°07'0 0.0
2018-Apr-19 21:00N 38°43' W 009°07'0 0.0
2018-Apr-19 20:24N 38°43' W 009°07'0 0.0
2018-Apr-19 19:54N 38°43' W 009°07'0 0.0
2018-Apr-19 19:30N 38°43' W 009°07'0 0.0
2018-Apr-19 18:57N 38°43' W 009°07'0 0.0
2018-Apr-19 18:27N 38°43' W 009°07'0 0.0
2018-Apr-19 17:57N 38°43' W 009°07'0 0.0
2018-Apr-19 11:43N 38°43' W 009°07'0 0.0
2018-Apr-19 11:29N 38°43' W 009°07'1 1.1
2018-Apr-19 11:00N 38°43' W 009°07'3 6.4
2018-Apr-19 10:30N 38°41' W 009°11'4 7.1
2018-Apr-19 10:00N 38°41' W 009°16'5 9.2
2018-Apr-19 09:30N 38°39' W 009°21'5 9.4
2018-Apr-19 09:00N 38°36' W 009°26'510.7
2018-Apr-19 08:30N 38°35' W 009°33'510.6
2018-Apr-19 08:00N 38°34' W 009°39'510.9
2018-Apr-19 07:30N 38°32' W 009°46'510.8
2018-Apr-19 07:00N 38°31' W 009°53'511.0
2018-Apr-19 06:30N 38°30' W 009°59'510.9
2018-Apr-19 06:00N 38°29' W 010°06'510.7
2018-Apr-19 05:30N 38°28' W 010°13'510.5
2018-Apr-19 05:00N 38°27' W 010°20'510.5
2018-Apr-19 04:30N 38°26' W 010°26'510.4
2018-Apr-19 04:00N 38°26' W 010°33'510.3
2018-Apr-19 03:30N 38°25' W 010°39'810.2
2018-Apr-19 02:41N 38°25' W 010°50'61512.4
2018-Apr-17 00:59N 37°44' W 023°50'712.9
2018-Apr-17 00:28N 37°44' W 023°58'613.3
2018-Apr-17 00:00N 37°43' W 024°06'713.6
2018-Apr-16 23:30N 37°43' W 024°14'713.4
2018-Apr-16 23:00N 37°42' W 024°23'713.3
2018-Apr-16 22:30N 37°42' W 024°31'713.2
2018-Apr-16 22:00N 37°42' W 024°40'612.7
2018-Apr-16 21:30N 37°42' W 024°48'713.1
2018-Apr-16 21:00N 37°42' W 024°56'713.3
2018-Apr-16 20:30N 37°41' W 025°04'612.7
2018-Apr-16 20:00N 37°40' W 025°12'613.0
2018-Apr-16 19:30N 37°40' W 025°20'713.0
2018-Apr-16 19:00N 37°40' W 025°29'713.6
2018-Apr-16 18:31N 37°43' W 025°36'3 6.3
2018-Apr-16 18:01N 37°44' W 025°40'0 0.0
2018-Apr-16 17:30N 37°44' W 025°40'0 0.0
2018-Apr-16 17:01N 37°44' W 025°40'0 0.0
2018-Apr-16 16:31N 37°44' W 025°40'0 0.0
2018-Apr-16 16:00N 37°44' W 025°40'0 0.0
2018-Apr-16 15:30N 37°44' W 025°40'0 0.0
2018-Apr-16 15:01N 37°44' W 025°40'0 0.0
2018-Apr-16 14:30N 37°44' W 025°40'0 0.0
2018-Apr-16 14:01N 37°44' W 025°40'0 0.0
2018-Apr-16 13:31N 37°44' W 025°40'0 0.0
2018-Apr-16 13:00N 37°44' W 025°40'0 0.0
2018-Apr-16 12:30N 37°44' W 025°40'0 0.0
2018-Apr-16 12:01N 37°44' W 025°40'0 0.0
2018-Apr-16 11:30N 37°44' W 025°40'0 0.0
2018-Apr-16 11:01N 37°44' W 025°40'0 0.0
2018-Apr-16 10:31N 37°44' W 025°40'0 0.0
2018-Apr-16 10:00N 37°44' W 025°40'0 0.0
2018-Apr-16 09:30N 37°44' W 025°40'0 0.0
2018-Apr-16 09:00N 37°44' W 025°40'0 0.0
2018-Apr-16 08:31N 37°44' W 025°40'0 0.0
2018-Apr-16 08:01N 37°44' W 025°40'0 0.1
2018-Apr-16 07:30N 37°44' W 025°40'4 7.7
2018-Apr-16 07:01N 37°42' W 025°36'611.1
2018-Apr-16 06:30N 37°38' W 025°31'611.1
2018-Apr-16 06:00N 37°35' W 025°25'611.3
2018-Apr-16 05:30N 37°36' W 025°17'  
Track history (hours):
 
Tides and Currents Weather Stations Pressure Air Temp Water Temp Dewpoint Dewpoint Depression Visibility Wind Speed Wind Dir Waves Ship Positions

Club Med II

Operator: V.Ships Leisure S.A.M

Last reported at 2018-Apr-26 05:09 UTC. Time now 2018-Apr-26 19:11 UTC.
Position N 41°22' E 002°11'.

Length 187 m; draft 5.3 m.

Type: Ship. MMSI: 227194000.

Date/timePositionNaut miles runAvg speedWind from/ knotsBaromVisibWave heightAir tempDewpointWater temp
2018-Apr-26 05:09N 41°22' E 002°11'0 0.0
2018-Apr-26 04:49N 41°22' E 002°11'1 2.9
2018-Apr-26 04:30N 41°21' E 002°11'4 7.1
2018-Apr-26 04:00N 41°19' E 002°14'611.1
2018-Apr-26 03:30N 41°14' E 002°11'611.6
2018-Apr-26 03:00N 41°09' E 002°07'611.5
2018-Apr-26 02:27N 41°03' E 002°03'3011.4
2018-Apr-25 23:48N 40°36' E 001°45'611.4
2018-Apr-25 23:19N 40°32' E 001°41'16514.7
2018-Apr-25 12:05N 38°07' W 000°01'214.9
2018-Apr-25 11:58N 38°05' W 000°02'814.4
2018-Apr-25 11:25N 37°59' W 000°09'614.3
2018-Apr-25 11:00N 37°54' W 000°13'914.3
2018-Apr-25 10:21N 37°47' W 000°19'514.2
2018-Apr-25 10:00N 37°42' W 000°23'713.9
2018-Apr-25 09:29N 37°36' W 000°28'713.3
2018-Apr-25 08:59N 37°32' W 000°33'713.7
2018-Apr-25 08:30N 37°27' W 000°40'814.4
2018-Apr-25 07:59N 37°22' W 000°47'714.8
2018-Apr-25 07:30N 37°18' W 000°54'914.7
2018-Apr-25 06:54N 37°12' W 001°02'212 7.0
2018-Apr-24 00:32N 36°05' W 005°13'011.7
2018-Apr-24 00:30N 36°05' W 005°14'611.8
2018-Apr-24 00:00N 36°01' W 005°19'713.4
2018-Apr-23 23:30N 35°58' W 005°26'128 5.0
2018-Apr-22 22:00N 36°32' W 007°59'81 6.7
2018-Apr-22 09:52N 37°25' W 009°15'3 9.2
2018-Apr-22 09:30N 37°28' W 009°15'5 9.2
2018-Apr-22 08:58N 37°33' W 009°16'4 9.4
2018-Apr-22 08:30N 37°37' W 009°17'5 9.3
2018-Apr-22 07:58N 37°42' W 009°17'4 9.4
2018-Apr-22 07:30N 37°46' W 009°18'4 8.4
2018-Apr-22 07:00N 37°51' W 009°18'4 8.7
2018-Apr-22 06:30N 37°55' W 009°19'4 8.9
2018-Apr-22 06:00N 37°59' W 009°19'4 8.6
2018-Apr-22 05:30N 38°04' W 009°19'4 8.7
2018-Apr-22 05:00N 38°08' W 009°20'4 8.6
2018-Apr-22 04:30N 38°12' W 009°20'4 8.5
2018-Apr-22 04:00N 38°17' W 009°20'4 9.0
2018-Apr-22 03:30N 38°21' W 009°20'5 9.3
2018-Apr-22 03:00N 38°26' W 009°21'4 8.8
2018-Apr-22 02:30N 38°30' W 009°21'5 9.1
2018-Apr-22 02:00N 38°35' W 009°22'510.5
2018-Apr-22 01:30N 38°40' W 009°19'611.6
2018-Apr-22 01:01N 38°41' W 009°12'4 8.8
2018-Apr-22 00:30N 38°43' W 009°07'0 0.0
2018-Apr-22 00:00N 38°43' W 009°07'0 0.0
2018-Apr-21 23:30N 38°43' W 009°07'0 0.0
2018-Apr-21 23:00N 38°43' W 009°07'0 0.0
2018-Apr-21 22:30N 38°43' W 009°07'0 0.0
2018-Apr-21 22:00N 38°43' W 009°07'0 0.0
2018-Apr-21 21:30N 38°43' W 009°07'0 0.0
2018-Apr-21 21:00N 38°43' W 009°07'0 0.0
2018-Apr-21 20:27N 38°43' W 009°07'0 0.0
2018-Apr-21 20:00N 38°43' W 009°07'0 0.0
2018-Apr-21 19:30N 38°43' W 009°07'0 0.0
2018-Apr-21 19:00N 38°43' W 009°07'0 0.0
2018-Apr-21 18:30N 38°43' W 009°07'0 0.0
2018-Apr-21 17:57N 38°43' W 009°07'0 0.0
2018-Apr-21 17:00N 38°43' W 009°07'0 0.0
2018-Apr-21 15:33N 38°43' W 009°07'0 0.0
2018-Apr-21 15:24N 38°43' W 009°07'0 0.0
2018-Apr-21 12:00N 38°43' W 009°07'0 0.0
2018-Apr-21 11:30N 38°43' W 009°07'0 0.0
2018-Apr-21 10:45N 38°43' W 009°07'0 0.0
2018-Apr-21 10:30N 38°43' W 009°07'0 0.0
2018-Apr-21 10:00N 38°43' W 009°07'0 0.0
2018-Apr-21 09:30N 38°43' W 009°07'0 0.0
2018-Apr-21 08:57N 38°43' W 009°07'0 0.0
2018-Apr-21 08:30N 38°43' W 009°07'0 0.0
2018-Apr-21 08:00N 38°43' W 009°07'0 0.0
2018-Apr-21 07:30N 38°43' W 009°07'0 0.0
2018-Apr-21 07:00N 38°43' W 009°07'0 0.0
2018-Apr-21 06:30N 38°43' W 009°07'0 0.0
2018-Apr-21 06:00N 38°43' W 009°07'0 0.0
2018-Apr-21 05:30N 38°43' W 009°07'0 0.0
2018-Apr-21 04:54N 38°43' W 009°07'0 0.0
2018-Apr-21 04:27N 38°43' W 009°07'0 0.0
2018-Apr-21 04:00N 38°43' W 009°07'0 0.0
2018-Apr-21 03:24N 38°43' W 009°07'0 0.0
2018-Apr-21 02:09N 38°43' W 009°07'0 0.0
2018-Apr-21 01:57N 38°43' W 009°07'0 0.0
2018-Apr-21 00:57N 38°43' W 009°07'0 0.0
2018-Apr-21 00:30N 38°43' W 009°07'0 0.0
2018-Apr-21 00:00N 38°43' W 009°07'0 0.0
2018-Apr-20 23:30N 38°43' W 009°07'0 0.0
2018-Apr-20 23:00N 38°43' W 009°07'0 0.0
2018-Apr-20 21:12N 38°43' W 009°07'0 0.0
2018-Apr-20 20:57N 38°43' W 009°07'0 0.0
2018-Apr-20 20:03N 38°43' W 009°07'0 0.0
2018-Apr-20 19:57N 38°43' W 009°07'0 0.0
2018-Apr-20 19:27N 38°43' W 009°07'0 0.0
2018-Apr-20 19:00N 38°43' W 009°07'0 0.0
2018-Apr-20 18:30N 38°43' W 009°07'0 0.0
2018-Apr-20 17:57N 38°43' W 009°07'0 0.0
2018-Apr-20 17:30N 38°43' W 009°07'0 0.0
2018-Apr-20 16:54N 38°43' W 009°07'0 0.0
2018-Apr-20 11:15N 38°43' W 009°07'0 0.0
2018-Apr-20 10:57N 38°43' W 009°07'0 0.0
2018-Apr-20 10:30N 38°43' W 009°07'0 0.0
2018-Apr-20 09:57N 38°43' W 009°07'0 0.0
2018-Apr-20 08:33N 38°43' W 009°07'0 0.0
2018-Apr-20 08:24N 38°43' W 009°07'0 0.0
2018-Apr-20 07:57N 38°43' W 009°07'0 0.0
2018-Apr-20 07:24N 38°43' W 009°07'0 0.0
2018-Apr-20 07:00N 38°43' W 009°07'0 0.0
2018-Apr-20 06:24N 38°43' W 009°07'0 0.0
2018-Apr-20 05:54N 38°43' W 009°07'0 0.0
2018-Apr-20 05:30N 38°43' W 009°07'0 0.0
2018-Apr-20 05:00N 38°43' W 009°07'0 0.0
2018-Apr-20 04:30N 38°43' W 009°07'0 0.0
2018-Apr-20 03:57N 38°43' W 009°07'0 0.0
2018-Apr-20 03:30N 38°43' W 009°07'0 0.0
2018-Apr-20 02:54N 38°43' W 009°07'0 0.0
2018-Apr-20 02:27N 38°43' W 009°07'0 0.0
2018-Apr-20 01:57N 38°43' W 009°07'0 0.0
2018-Apr-20 01:30N 38°43' W 009°07'0 0.0
2018-Apr-20 01:00N 38°43' W 009°07'0 0.0
2018-Apr-20 00:27N 38°43' W 009°07'0 0.0
2018-Apr-20 00:00N 38°43' W 009°07'0 0.0
2018-Apr-19 23:24N 38°43' W 009°07'0 0.0
2018-Apr-19 23:00N 38°43' W 009°07'0 0.0
2018-Apr-19 22:27N 38°43' W 009°07'0 0.0
2018-Apr-19 21:45N 38°43' W 009°07'0 0.0
2018-Apr-19 21:27N 38°43' W 009°07'0 0.0
2018-Apr-19 21:00N 38°43' W 009°07'0 0.0
2018-Apr-19 20:24N 38°43' W 009°07'0 0.0
2018-Apr-19 19:54N 38°43' W 009°07'0 0.0
2018-Apr-19 19:30N 38°43' W 009°07'0 0.0
2018-Apr-19 18:57N 38°43' W 009°07'0 0.0
2018-Apr-19 18:27N 38°43' W 009°07'0 0.0
2018-Apr-19 17:57N 38°43' W 009°07'0 0.0
2018-Apr-19 11:43N 38°43' W 009°07'0 0.0
2018-Apr-19 11:29N 38°43' W 009°07'1 1.1
2018-Apr-19 11:00N 38°43' W 009°07'3 6.4
2018-Apr-19 10:30N 38°41' W 009°11'4 7.1
2018-Apr-19 10:00N 38°41' W 009°16'5 9.2
2018-Apr-19 09:30N 38°39' W 009°21'5 9.4
2018-Apr-19 09:00N 38°36' W 009°26'510.7
2018-Apr-19 08:30N 38°35' W 009°33'510.6
2018-Apr-19 08:00N 38°34' W 009°39'510.9
2018-Apr-19 07:30N 38°32' W 009°46'510.8
2018-Apr-19 07:00N 38°31' W 009°53'511.0
2018-Apr-19 06:30N 38°30' W 009°59'510.9
2018-Apr-19 06:00N 38°29' W 010°06'510.7
2018-Apr-19 05:30N 38°28' W 010°13'510.5
2018-Apr-19 05:00N 38°27' W 010°20'510.5
2018-Apr-19 04:30N 38°26' W 010°26'510.4
2018-Apr-19 04:00N 38°26' W 010°33'510.3
2018-Apr-19 03:30N 38°25' W 010°39'810.2
2018-Apr-19 02:41N 38°25' W 010°50'61512.4
2018-Apr-17 00:59N 37°44' W 023°50'712.9
2018-Apr-17 00:28N 37°44' W 023°58'613.3
2018-Apr-17 00:00N 37°43' W 024°06'713.6
2018-Apr-16 23:30N 37°43' W 024°14'713.4
2018-Apr-16 23:00N 37°42' W 024°23'713.3
2018-Apr-16 22:30N 37°42' W 024°31'713.2
2018-Apr-16 22:00N 37°42' W 024°40'612.7
2018-Apr-16 21:30N 37°42' W 024°48'713.1
2018-Apr-16 21:00N 37°42' W 024°56'713.3
2018-Apr-16 20:30N 37°41' W 025°04'612.7
2018-Apr-16 20:00N 37°40' W 025°12'613.0
2018-Apr-16 19:30N 37°40' W 025°20'713.0
2018-Apr-16 19:00N 37°40' W 025°29'713.6
2018-Apr-16 18:31N 37°43' W 025°36'3 6.3
2018-Apr-16 18:01N 37°44' W 025°40'0 0.0
2018-Apr-16 17:30N 37°44' W 025°40'0 0.0
2018-Apr-16 17:01N 37°44' W 025°40'0 0.0
2018-Apr-16 16:31N 37°44' W 025°40'0 0.0
2018-Apr-16 16:00N 37°44' W 025°40'0 0.0
2018-Apr-16 15:30N 37°44' W 025°40'0 0.0
2018-Apr-16 15:01N 37°44' W 025°40'0 0.0
2018-Apr-16 14:30N 37°44' W 025°40'0 0.0
2018-Apr-16 14:01N 37°44' W 025°40'0 0.0
2018-Apr-16 13:31N 37°44' W 025°40'0 0.0
2018-Apr-16 13:00N 37°44' W 025°40'0 0.0
2018-Apr-16 12:30N 37°44' W 025°40'0 0.0
2018-Apr-16 12:01N 37°44' W 025°40'0 0.0
2018-Apr-16 11:30N 37°44' W 025°40'0 0.0
2018-Apr-16 11:01N 37°44' W 025°40'0 0.0
2018-Apr-16 10:31N 37°44' W 025°40'0 0.0
2018-Apr-16 10:00N 37°44' W 025°40'0 0.0
2018-Apr-16 09:30N 37°44' W 025°40'0 0.0
2018-Apr-16 09:00N 37°44' W 025°40'0 0.0
2018-Apr-16 08:31N 37°44' W 025°40'0 0.0
2018-Apr-16 08:01N 37°44' W 025°40'0 0.1
2018-Apr-16 07:30N 37°44' W 025°40'4 7.7
2018-Apr-16 07:01N 37°42' W 025°36'611.1
2018-Apr-16 06:30N 37°38' W 025°31'611.1
2018-Apr-16 06:00N 37°35' W 025°25'611.3
2018-Apr-16 05:30N 37°36' W 025°17'  

Dump ship's entire track history